Larson, North Dakota
Current Conditions -  °F | °C
As of 2:35 PM on Tuesday 21 Oct 2014 (Local Time) from KD50 Reporting Station
Clear Clear  
Wind Chill: 73°   Ceiling: Unl
Heat Index: 73°   Visibility: 10mi
Dew Point: 41°   Wind: 9mph
Humidity: 31%   Direction: 130°SE
Pressure: 29.62"   Gusts: NA
Location:  48.8599°N, 102.808°W
Report Text: KD50 211935Z AUTO 13008KT 10SM CLR 23/05 A2962 RMK AO2
Loading
Personal Weather Stations






























Interactive Weather Map
Tropical Storm Tracking
New forecast layout! Learn more

10-Day Weather Forecast

Advertisements
Track Severe Weather on mobile